Chatsworth, NJ (08019)

5:28 AM EDT on September 16, 2014 (GMT -0400)
Pine Barrens Weather In | Change Station
CLOSE
Current Station
Personal Weather Station
Location: Warren Grove, NJ
Elevation: 88 ft
Nearby Weather Stations

Elev 88 ft 39.75 °N, 74.37 °W | Updated 17 minutes ago

Partly Cloudy
Partly Cloudy
53.5 °F
Feels Like 53.5 °F
N
0.0
Wind Variable Wind from SSE
Gusts 0.0 mph

Today
High -- | Low -- °F
--% Chance of Precip.
Yesterday
High -- | Low -- °F
Precip. -- in
6:39 AM 7:04 PM
Waning Gibbous, 47% visible
Pressure 30.03 in
Visibility 10.0 miles
Clouds Clear
Dew Point Not available.
Humidity Not available.
Rainfall 0.00 in
Snow Depth Not available.
UV 0 out of 12
Pollen 3.90 out of 12
Ozone Good
PM2.5 Moderate
Flu Activity Not available.
METAR KMJX 160855Z AUTO 00000KT 10SM CLR 10/09 A3003 RMK AO1 57014

More Conditions Fewer Conditions

Pressure 30.03 in
Visibility 10.0 miles
Clouds Clear
Dew Point Not available.
Humidity Not available.
Rainfall 0.00 in
Snow Depth Not available.
UV 0 out of 12
Pollen 3.90 out of 12
Ozone Good
PM2.5 Moderate
Flu Activity Not available.
METAR KMJX 160855Z AUTO 00000KT 10SM CLR 10/09 A3003 RMK AO1 57014

More Conditions Fewer Conditions

10-Day Weather Forecast

Almanac

Astronomy

Sep. 16, 2014 Rise Set
Actual Time 6:39 AM EDT 7:04 PM EDT
Civil Twilight 6:12 AM EDT 7:31 PM EDT
Nautical Twilight 5:40 AM EDT 8:03 PM EDT
Astronomical Twilight 5:08 AM EDT 8:36 PM EDT
Moon No Moon Rise 2:25 PM EDT
Length of Visible Light 13h 19m
Length of Day
12h 25m
Tomorrow will be 2m 35s shorter.
Waning Gibbous, 47% of the Moon is Illuminated
Today
Waning Gibbous
Sep 24
New
Oct 1
First Quarter
Oct 8
Full
Oct 15
Last Quarter

Today's Extremes

State Highs State Lows

Community

WunderPhotos

Upload Photos

1,753,714 photos uploaded!

WunderBlogs® & News

Nearby

Air Quality

  Air Quality AQ Index Pollutant
Yesterday Good
PM2.5
Yesterday Good
OZONE
Current Moderate
PM2.5
Current Good
OZONE
Tuesday Good
PM2.5
Tuesday Good
OZONE
Wednesday Good
PM2.5
Wednesday Good
OZONE
Thursday Good
PM2.5
Thursday Good
OZONE

Snow Depth

Station Depth Elevation
No new snow has been reported.

Earthquake Activity

City Distance Mag. Time & Date
No recent earthquake activity has been reported nearby.
Minimum magnitude displayed is 2.5.

Coastal Water Temperatures

Place Temperature
Atlantic City, NJ 72.0 °F

Nearby Weather Stations